sensor_id;sensor_type;location;lat;lon;timestamp;temperature;humidity
4207;DHT22;2117;47.972;7.830;2022-10-16T01:31:15;15.20;99.90
4207;DHT22;2117;47.972;7.830;2022-10-16T01:33:46;15.20;99.90
4207;DHT22;2117;47.972;7.830;2022-10-16T01:36:21;15.10;99.90
4207;DHT22;2117;47.972;7.830;2022-10-16T01:38:50;15.10;99.90
4207;DHT22;2117;47.972;7.830;2022-10-16T01:41:27;15.10;99.90
4207;DHT22;2117;47.972;7.830;2022-10-16T01:44:05;15.10;99.90
4207;DHT22;2117;47.972;7.830;2022-10-16T01:46:35;15.10;99.90
4207;DHT22;2117;47.972;7.830;2022-10-16T01:49:02;15.00;99.90
4207;DHT22;2117;47.972;7.830;2022-10-16T01:51:29;15.00;99.90
4207;DHT22;2117;47.972;7.830;2022-10-16T01:53:58;15.00;99.90
4207;DHT22;2117;47.972;7.830;2022-10-16T01:56:25;15.00;99.90
4207;DHT22;2117;47.972;7.830;2022-10-16T01:59:15;15.00;99.90
4207;DHT22;2117;47.972;7.830;2022-10-16T02:01:47;15.00;99.90
4207;DHT22;2117;47.972;7.830;2022-10-16T02:04:35;14.90;99.90
4207;DHT22;2117;47.972;7.830;2022-10-16T02:07:02;14.90;99.90
4207;DHT22;2117;47.972;7.830;2022-10-16T02:09:30;14.90;99.90
4207;DHT22;2117;47.972;7.830;2022-10-16T02:11:57;14.80;99.90
4207;DHT22;2117;47.972;7.830;2022-10-16T02:14:25;14.80;99.90
4207;DHT22;2117;47.972;7.830;2022-10-16T02:16:51;14.80;99.90
4207;DHT22;2117;47.972;7.830;2022-10-16T02:19:17;14.80;99.90
4207;DHT22;2117;47.972;7.830;2022-10-16T02:21:57;14.80;99.90
4207;DHT22;2117;47.972;7.830;2022-10-16T02:27:11;14.80;99.90
4207;DHT22;2117;47.972;7.830;2022-10-16T02:29:42;14.80;99.90
4207;DHT22;2117;47.972;7.830;2022-10-16T02:32:11;14.80;99.90
4207;DHT22;2117;47.972;7.830;2022-10-16T02:34:39;14.80;99.90
4207;DHT22;2117;47.972;7.830;2022-10-16T02:37:05;14.80;99.90
4207;DHT22;2117;47.972;7.830;2022-10-16T02:39:32;14.80;99.90
4207;DHT22;2117;47.972;7.830;2022-10-16T02:41:58;14.80;99.90
4207;DHT22;2117;47.972;7.830;2022-10-16T02:44:23;14.80;99.90
4207;DHT22;2117;47.972;7.830;2022-10-16T02:46:49;14.80;99.90
4207;DHT22;2117;47.972;7.830;2022-10-16T02:49:15;14.80;99.90
4207;DHT22;2117;47.972;7.830;2022-10-16T02:51:40;14.80;99.90
4207;DHT22;2117;47.972;7.830;2022-10-16T02:54:06;14.80;99.90
4207;DHT22;2117;47.972;7.830;2022-10-16T02:56:31;14.90;99.90
4207;DHT22;2117;47.972;7.830;2022-10-16T02:58:57;14.80;99.90
4207;DHT22;2117;47.972;7.830;2022-10-16T03:01:23;14.90;99.90
4207;DHT22;2117;47.972;7.830;2022-10-16T03:03:49;14.90;99.90
4207;DHT22;2117;47.972;7.830;2022-10-16T03:06:14;14.90;99.90
4207;DHT22;2117;47.972;7.830;2022-10-16T03:08:40;15.00;99.90
4207;DHT22;2117;47.972;7.830;2022-10-16T03:11:06;15.00;99.90
4207;DHT22;2117;47.972;7.830;2022-10-16T03:13:31;15.00;99.90
4207;DHT22;2117;47.972;7.830;2022-10-16T03:15:57;15.00;99.90
4207;DHT22;2117;47.972;7.830;2022-10-16T03:18:22;15.00;99.90
4207;DHT22;2117;47.972;7.830;2022-10-16T03:20:48;15.00;99.90
4207;DHT22;2117;47.972;7.830;2022-10-16T03:23:13;15.00;99.90
4207;DHT22;2117;47.972;7.830;2022-10-16T03:25:39;15.10;99.90
4207;DHT22;2117;47.972;7.830;2022-10-16T03:28:05;15.10;99.90
4207;DHT22;2117;47.972;7.830;2022-10-16T03:30:31;15.10;99.90
4207;DHT22;2117;47.972;7.830;2022-10-16T03:32:56;15.00;99.90
4207;DHT22;2117;47.972;7.830;2022-10-16T03:35:23;15.00;99.90
4207;DHT22;2117;47.972;7.830;2022-10-16T03:37:50;15.00;99.90
4207;DHT22;2117;47.972;7.830;2022-10-16T03:40:16;15.10;99.90
4207;DHT22;2117;47.972;7.830;2022-10-16T03:42:43;15.10;99.90
4207;DHT22;2117;47.972;7.830;2022-10-16T03:45:09;15.10;99.90
4207;DHT22;2117;47.972;7.830;2022-10-16T03:47:34;15.10;99.90
4207;DHT22;2117;47.972;7.830;2022-10-16T03:50:00;15.10;99.90
4207;DHT22;2117;47.972;7.830;2022-10-16T03:52:26;15.10;99.90
4207;DHT22;2117;47.972;7.830;2022-10-16T03:54:51;15.10;99.90
4207;DHT22;2117;47.972;7.830;2022-10-16T03:57:17;15.20;99.90
4207;DHT22;2117;47.972;7.830;2022-10-16T03:59:43;15.20;99.90
4207;DHT22;2117;47.972;7.830;2022-10-16T04:02:08;15.20;99.90
4207;DHT22;2117;47.972;7.830;2022-10-16T04:04:34;15.20;99.90
4207;DHT22;2117;47.972;7.830;2022-10-16T04:07:00;15.10;99.90
4207;DHT22;2117;47.972;7.830;2022-10-16T04:09:25;15.10;99.90
4207;DHT22;2117;47.972;7.830;2022-10-16T04:11:51;15.10;99.90
4207;DHT22;2117;47.972;7.830;2022-10-16T04:14:17;15.10;99.90
4207;DHT22;2117;47.972;7.830;2022-10-16T04:16:42;15.10;99.90
4207;DHT22;2117;47.972;7.830;2022-10-16T04:19:09;15.10;99.90
4207;DHT22;2117;47.972;7.830;2022-10-16T04:21:34;15.10;99.90
4207;DHT22;2117;47.972;7.830;2022-10-16T04:24:00;15.10;99.90
4207;DHT22;2117;47.972;7.830;2022-10-16T04:26:25;15.10;99.90
4207;DHT22;2117;47.972;7.830;2022-10-16T04:28:51;15.10;99.90
4207;DHT22;2117;47.972;7.830;2022-10-16T04:31:16;15.10;99.90
4207;DHT22;2117;47.972;7.830;2022-10-16T04:33:43;15.10;99.90
4207;DHT22;2117;47.972;7.830;2022-10-16T04:36:09;15.10;99.90
4207;DHT22;2117;47.972;7.830;2022-10-16T04:38:34;15.10;99.90
4207;DHT22;2117;47.972;7.830;2022-10-16T04:41:00;15.10;99.90
4207;DHT22;2117;47.972;7.830;2022-10-16T04:43:26;15.10;99.90
4207;DHT22;2117;47.972;7.830;2022-10-16T04:45:52;15.10;99.90
4207;DHT22;2117;47.972;7.830;2022-10-16T04:48:18;15.10;99.90
4207;DHT22;2117;47.972;7.830;2022-10-16T04:50:43;15.10;99.90
4207;DHT22;2117;47.972;7.830;2022-10-16T04:53:09;15.10;99.90
4207;DHT22;2117;47.972;7.830;2022-10-16T04:55:35;15.10;99.90
4207;DHT22;2117;47.972;7.830;2022-10-16T04:58:00;15.10;99.90
4207;DHT22;2117;47.972;7.830;2022-10-16T05:00:26;15.10;99.90
4207;DHT22;2117;47.972;7.830;2022-10-16T05:02:52;15.10;99.90
4207;DHT22;2117;47.972;7.830;2022-10-16T05:05:18;15.10;99.90
4207;DHT22;2117;47.972;7.830;2022-10-16T05:07:45;15.10;99.90
4207;DHT22;2117;47.972;7.830;2022-10-16T05:10:11;15.10;99.90
4207;DHT22;2117;47.972;7.830;2022-10-16T05:12:36;15.10;99.90
4207;DHT22;2117;47.972;7.830;2022-10-16T05:15:02;15.20;99.90
4207;DHT22;2117;47.972;7.830;2022-10-16T05:17:28;15.20;99.90
4207;DHT22;2117;47.972;7.830;2022-10-16T05:19:53;15.20;99.90
4207;DHT22;2117;47.972;7.830;2022-10-16T05:22:19;15.20;99.90
4207;DHT22;2117;47.972;7.830;2022-10-16T05:24:45;15.20;99.90
4207;DHT22;2117;47.972;7.830;2022-10-16T05:27:10;15.20;99.90
4207;DHT22;2117;47.972;7.830;2022-10-16T05:29:36;15.20;99.90
4207;DHT22;2117;47.972;7.830;2022-10-16T05:32:02;15.20;99.90
4207;DHT22;2117;47.972;7.830;2022-10-16T05:34:28;15.20;99.90
4207;DHT22;2117;47.972;7.830;2022-10-16T05:36:53;15.20;99.90
4207;DHT22;2117;47.972;7.830;2022-10-16T05:39:19;15.20;99.90
4207;DHT22;2117;47.972;7.830;2022-10-16T05:41:44;15.20;99.90
4207;DHT22;2117;47.972;7.830;2022-10-16T05:44:10;15.10;99.90
4207;DHT22;2117;47.972;7.830;2022-10-16T05:46:36;15.20;99.90
4207;DHT22;2117;47.972;7.830;2022-10-16T05:49:02;15.20;99.90
4207;DHT22;2117;47.972;7.830;2022-10-16T05:51:27;15.20;99.90
4207;DHT22;2117;47.972;7.830;2022-10-16T05:53:53;15.20;99.90
4207;DHT22;2117;47.972;7.830;2022-10-16T05:56:18;15.20;99.90
4207;DHT22;2117;47.972;7.830;2022-10-16T05:58:44;15.20;99.90
4207;DHT22;2117;47.972;7.830;2022-10-16T06:01:13;15.20;99.90
4207;DHT22;2117;47.972;7.830;2022-10-16T06:03:39;15.10;99.90
4207;DHT22;2117;47.972;7.830;2022-10-16T06:08:34;15.20;99.90
4207;DHT22;2117;47.972;7.830;2022-10-16T06:11:02;15.20;99.90
4207;DHT22;2117;47.972;7.830;2022-10-16T06:13:27;15.20;99.90
4207;DHT22;2117;47.972;7.830;2022-10-16T06:15:53;15.30;99.90
4207;DHT22;2117;47.972;7.830;2022-10-16T06:18:21;15.30;99.90
4207;DHT22;2117;47.972;7.830;2022-10-16T06:20:47;15.30;99.90
4207;DHT22;2117;47.972;7.830;2022-10-16T06:23:12;15.30;99.90
4207;DHT22;2117;47.972;7.830;2022-10-16T06:25:38;15.30;99.90
4207;DHT22;2117;47.972;7.830;2022-10-16T06:28:03;15.30;99.90
4207;DHT22;2117;47.972;7.830;2022-10-16T06:30:29;15.30;99.90
4207;DHT22;2117;47.972;7.830;2022-10-16T06:32:54;15.40;99.90
4207;DHT22;2117;47.972;7.830;2022-10-16T06:35:20;15.40;99.90
4207;DHT22;2117;47.972;7.830;2022-10-16T06:37:45;15.40;99.90
4207;DHT22;2117;47.972;7.830;2022-10-16T06:40:11;15.40;99.90
4207;DHT22;2117;47.972;7.830;2022-10-16T06:42:39;15.40;99.90
4207;DHT22;2117;47.972;7.830;2022-10-16T06:45:05;15.50;99.90
4207;DHT22;2117;47.972;7.830;2022-10-16T06:47:31;15.50;99.90
4207;DHT22;2117;47.972;7.830;2022-10-16T06:49:56;15.50;99.90
4207;DHT22;2117;47.972;7.830;2022-10-16T06:52:22;15.50;99.90
4207;DHT22;2117;47.972;7.830;2022-10-16T06:54:47;15.50;99.90
4207;DHT22;2117;47.972;7.830;2022-10-16T06:57:13;15.50;99.90
4207;DHT22;2117;47.972;7.830;2022-10-16T06:59:38;15.50;99.90
4207;DHT22;2117;47.972;7.830;2022-10-16T07:02:04;15.50;99.90
4207;DHT22;2117;47.972;7.830;2022-10-16T07:04:29;15.50;99.90
4207;DHT22;2117;47.972;7.830;2022-10-16T07:06:55;15.60;99.90
4207;DHT22;2117;47.972;7.830;2022-10-16T07:09:20;15.60;99.90
4207;DHT22;2117;47.972;7.830;2022-10-16T07:11:46;15.70;99.90
4207;DHT22;2117;47.972;7.830;2022-10-16T07:14:21;15.70;99.90
4207;DHT22;2117;47.972;7.830;2022-10-16T07:16:47;15.70;99.90
4207;DHT22;2117;47.972;7.830;2022-10-16T07:19:13;15.70;99.90
4207;DHT22;2117;47.972;7.830;2022-10-16T07:21:41;15.80;99.90
4207;DHT22;2117;47.972;7.830;2022-10-16T07:24:14;15.80;99.90
4207;DHT22;2117;47.972;7.830;2022-10-16T07:26:43;15.80;99.90
4207;DHT22;2117;47.972;7.830;2022-10-16T07:29:14;15.90;99.90
4207;DHT22;2117;47.972;7.830;2022-10-16T07:31:40;15.90;99.90
4207;DHT22;2117;47.972;7.830;2022-10-16T07:34:06;15.90;99.90
4207;DHT22;2117;47.972;7.830;2022-10-16T07:36:32;15.90;99.90
4207;DHT22;2117;47.972;7.830;2022-10-16T07:38:57;16.00;99.90
4207;DHT22;2117;47.972;7.830;2022-10-16T07:41:23;16.00;99.90
4207;DHT22;2117;47.972;7.830;2022-10-16T07:43:51;16.10;99.90
4207;DHT22;2117;47.972;7.830;2022-10-16T07:46:17;16.20;99.90
4207;DHT22;2117;47.972;7.830;2022-10-16T07:51:24;16.30;99.90
4207;DHT22;2117;47.972;7.830;2022-10-16T07:53:50;16.40;99.90
4207;DHT22;2117;47.972;7.830;2022-10-16T07:56:17;16.40;99.90
4207;DHT22;2117;47.972;7.830;2022-10-16T07:58:44;16.50;99.90
4207;DHT22;2117;47.972;7.830;2022-10-16T08:01:12;16.50;99.90
4207;DHT22;2117;47.972;7.830;2022-10-16T08:03:45;16.60;99.90
4207;DHT22;2117;47.972;7.830;2022-10-16T08:06:11;16.70;99.90
4207;DHT22;2117;47.972;7.830;2022-10-16T08:08:37;16.80;99.90
4207;DHT22;2117;47.972;7.830;2022-10-16T08:11:02;16.90;99.90
4207;DHT22;2117;47.972;7.830;2022-10-16T08:13:31;16.90;99.90
4207;DHT22;2117;47.972;7.830;2022-10-16T08:15:57;17.00;99.90
4207;DHT22;2117;47.972;7.830;2022-10-16T08:18:23;17.00;99.90
4207;DHT22;2117;47.972;7.830;2022-10-16T08:20:55;17.10;99.90
4207;DHT22;2117;47.972;7.830;2022-10-16T08:23:21;17.20;99.90
4207;DHT22;2117;47.972;7.830;2022-10-16T08:25:46;17.30;99.90
4207;DHT22;2117;47.972;7.830;2022-10-16T08:28:12;17.40;99.90
4207;DHT22;2117;47.972;7.830;2022-10-16T08:30:38;17.50;99.90
4207;DHT22;2117;47.972;7.830;2022-10-16T08:33:04;17.60;99.90
4207;DHT22;2117;47.972;7.830;2022-10-16T08:35:30;17.70;99.90
4207;DHT22;2117;47.972;7.830;2022-10-16T08:37:55;17.80;99.90
4207;DHT22;2117;47.972;7.830;2022-10-16T08:40:27;17.90;99.90
4207;DHT22;2117;47.972;7.830;2022-10-16T08:46:15;18.10;99.90
4207;DHT22;2117;47.972;7.830;2022-10-16T08:48:47;18.20;99.90
4207;DHT22;2117;47.972;7.830;2022-10-16T08:51:29;18.30;99.90
4207;DHT22;2117;47.972;7.830;2022-10-16T08:54:02;18.40;99.90
4207;DHT22;2117;47.972;7.830;2022-10-16T08:56:28;18.40;99.90
4207;DHT22;2117;47.972;7.830;2022-10-16T08:58:54;18.50;99.90
4207;DHT22;2117;47.972;7.830;2022-10-16T09:01:22;18.50;99.90
4207;DHT22;2117;47.972;7.830;2022-10-16T09:04:43;18.60;99.90
4207;DHT22;2117;47.972;7.830;2022-10-16T09:15:36;19.00;99.90
4207;DHT22;2117;47.972;7.830;2022-10-16T09:18:19;19.10;99.90
4207;DHT22;2117;47.972;7.830;2022-10-16T09:20:56;19.20;99.90
4207;DHT22;2117;47.972;7.830;2022-10-16T09:23:29;19.30;99.90
4207;DHT22;2117;47.972;7.830;2022-10-16T09:25:56;19.50;99.90
4207;DHT22;2117;47.972;7.830;2022-10-16T09:28:23;19.60;99.90
4207;DHT22;2117;47.972;7.830;2022-10-16T09:30:49;19.60;99.90
4207;DHT22;2117;47.972;7.830;2022-10-16T09:33:17;19.80;99.90
4207;DHT22;2117;47.972;7.830;2022-10-16T09:35:45;20.00;99.90
4207;DHT22;2117;47.972;7.830;2022-10-16T09:38:34;20.20;99.90
4207;DHT22;2117;47.972;7.830;2022-10-16T09:41:03;20.50;99.90
4207;DHT22;2117;47.972;7.830;2022-10-16T09:43:41;20.50;99.90
4207;DHT22;2117;47.972;7.830;2022-10-16T09:46:31;20.80;99.90
4207;DHT22;2117;47.972;7.830;2022-10-16T09:49:03;21.00;99.90
4207;DHT22;2117;47.972;7.830;2022-10-16T09:51:34;21.00;99.90
4207;DHT22;2117;47.972;7.830;2022-10-16T09:56:36;21.50;99.90
4207;DHT22;2117;47.972;7.830;2022-10-16T09:59:24;21.90;99.90
4207;DHT22;2117;47.972;7.830;2022-10-16T10:01:53;22.00;99.90
4207;DHT22;2117;47.972;7.830;2022-10-16T10:04:22;22.20;99.90
4207;DHT22;2117;47.972;7.830;2022-10-16T10:06:52;22.40;99.90
4207;DHT22;2117;47.972;7.830;2022-10-16T10:09:38;22.60;99.90
4207;DHT22;2117;47.972;7.830;2022-10-16T10:12:05;22.70;99.90
4207;DHT22;2117;47.972;7.830;2022-10-16T10:14:47;22.90;99.90
4207;DHT22;2117;47.972;7.830;2022-10-16T10:17:15;22.90;99.90
4207;DHT22;2117;47.972;7.830;2022-10-16T10:19:55;23.00;99.90
4207;DHT22;2117;47.972;7.830;2022-10-16T10:38:31;23.30;99.90
4207;DHT22;2117;47.972;7.830;2022-10-16T10:46:41;23.50;99.90
4207;DHT22;2117;47.972;7.830;2022-10-16T10:57:29;23.90;99.90
4207;DHT22;2117;47.972;7.830;2022-10-16T11:00:13;24.00;99.90
4207;DHT22;2117;47.972;7.830;2022-10-16T11:05:40;24.10;99.90
4207;DHT22;2117;47.972;7.830;2022-10-16T11:08:16;24.20;99.90
4207;DHT22;2117;47.972;7.830;2022-10-16T11:10:52;24.20;99.90
4207;DHT22;2117;47.972;7.830;2022-10-16T11:13:36;24.30;99.90
4207;DHT22;2117;47.972;7.830;2022-10-16T11:21:26;24.40;99.90
4207;DHT22;2117;47.972;7.830;2022-10-16T11:24:11;24.20;99.90
4207;DHT22;2117;47.972;7.830;2022-10-16T11:26:41;24.20;99.90
4207;DHT22;2117;47.972;7.830;2022-10-16T11:29:16;24.30;99.90
4207;DHT22;2117;47.972;7.830;2022-10-16T11:31:53;24.40;99.90
4207;DHT22;2117;47.972;7.830;2022-10-16T11:34:28;24.20;99.90
4207;DHT22;2117;47.972;7.830;2022-10-16T11:37:23;24.30;99.90
4207;DHT22;2117;47.972;7.830;2022-10-16T11:39:52;24.40;99.90
4207;DHT22;2117;47.972;7.830;2022-10-16T11:42:30;24.40;99.90
4207;DHT22;2117;47.972;7.830;2022-10-16T11:50:17;25.10;99.90
4207;DHT22;2117;47.972;7.830;2022-10-16T11:55:38;25.50;99.90
4207;DHT22;2117;47.972;7.830;2022-10-16T12:08:14;26.90;99.90
4207;DHT22;2117;47.972;7.830;2022-10-16T12:10:43;27.10;99.90
4207;DHT22;2117;47.972;7.830;2022-10-16T12:13:34;27.30;99.90
4207;DHT22;2117;47.972;7.830;2022-10-16T12:16:24;27.40;99.90
4207;DHT22;2117;47.972;7.830;2022-10-16T12:18:50;27.40;99.90
4207;DHT22;2117;47.972;7.830;2022-10-16T12:21:30;27.40;99.90
4207;DHT22;2117;47.972;7.830;2022-10-16T12:23:58;27.40;99.90
4207;DHT22;2117;47.972;7.830;2022-10-16T12:26:29;27.50;99.90
4207;DHT22;2117;47.972;7.830;2022-10-16T12:28:55;27.30;99.90
4207;DHT22;2117;47.972;7.830;2022-10-16T12:31:22;27.30;99.90
4207;DHT22;2117;47.972;7.830;2022-10-16T12:34:01;27.10;99.90
4207;DHT22;2117;47.972;7.830;2022-10-16T12:36:32;27.00;99.90
4207;DHT22;2117;47.972;7.830;2022-10-16T12:38:59;27.00;99.90
4207;DHT22;2117;47.972;7.830;2022-10-16T12:41:32;27.00;99.90
4207;DHT22;2117;47.972;7.830;2022-10-16T12:43:58;27.10;99.90
4207;DHT22;2117;47.972;7.830;2022-10-16T12:46:34;27.20;99.90
4207;DHT22;2117;47.972;7.830;2022-10-16T12:49:22;27.50;99.90
4207;DHT22;2117;47.972;7.830;2022-10-16T12:51:50;27.60;99.90
4207;DHT22;2117;47.972;7.830;2022-10-16T12:54:27;27.70;99.90
4207;DHT22;2117;47.972;7.830;2022-10-16T13:00:13;28.20;99.90
4207;DHT22;2117;47.972;7.830;2022-10-16T13:05:44;28.80;99.90
4207;DHT22;2117;47.972;7.830;2022-10-16T13:11:49;28.80;99.90
4207;DHT22;2117;47.972;7.830;2022-10-16T13:17:25;29.20;99.90
4207;DHT22;2117;47.972;7.830;2022-10-16T13:23:09;29.50;99.90
4207;DHT22;2117;47.972;7.830;2022-10-16T13:28:13;29.50;99.40
4207;DHT22;2117;47.972;7.830;2022-10-16T13:30:55;29.60;99.30
4207;DHT22;2117;47.972;7.830;2022-10-16T13:33:41;29.60;98.70
4207;DHT22;2117;47.972;7.830;2022-10-16T13:36:22;29.70;98.90
4207;DHT22;2117;47.972;7.830;2022-10-16T13:38:48;29.80;99.10
4207;DHT22;2117;47.972;7.830;2022-10-16T13:41:24;29.80;99.30
4207;DHT22;2117;47.972;7.830;2022-10-16T13:43:52;30.10;99.10
4207;DHT22;2117;47.972;7.830;2022-10-16T13:46:22;30.10;98.80
4207;DHT22;2117;47.972;7.830;2022-10-16T13:48:59;29.70;98.20
4207;DHT22;2117;47.972;7.830;2022-10-16T13:51:25;29.60;98.70
4207;DHT22;2117;47.972;7.830;2022-10-16T13:53:51;29.70;97.20
4207;DHT22;2117;47.972;7.830;2022-10-16T13:56:22;29.80;96.40
4207;DHT22;2117;47.972;7.830;2022-10-16T13:59:40;29.70;97.80
4207;DHT22;2117;47.972;7.830;2022-10-16T14:01:47;29.60;98.20
4207;DHT22;2117;47.972;7.830;2022-10-16T14:04:13;29.70;98.40
4207;DHT22;2117;47.972;7.830;2022-10-16T14:06:46;29.60;99.10
4207;DHT22;2117;47.972;7.830;2022-10-16T14:09:25;29.90;98.40
4207;DHT22;2117;47.972;7.830;2022-10-16T14:11:55;29.90;98.70
4207;DHT22;2117;47.972;7.830;2022-10-16T14:14:22;29.80;99.20
4207;DHT22;2117;47.972;7.830;2022-10-16T14:16:48;29.70;98.70
4207;DHT22;2117;47.972;7.830;2022-10-16T14:19:26;29.50;98.70
4207;DHT22;2117;47.972;7.830;2022-10-16T14:21:53;29.50;99.20
4207;DHT22;2117;47.972;7.830;2022-10-16T14:24:33;29.70;98.40
4207;DHT22;2117;47.972;7.830;2022-10-16T14:27:00;29.60;99.90
4207;DHT22;2117;47.972;7.830;2022-10-16T14:29:28;29.50;99.50
4207;DHT22;2117;47.972;7.830;2022-10-16T14:32:04;29.60;99.00
4207;DHT22;2117;47.972;7.830;2022-10-16T14:34:31;29.70;99.80
4207;DHT22;2117;47.972;7.830;2022-10-16T14:37:44;29.70;99.60
4207;DHT22;2117;47.972;7.830;2022-10-16T14:39:49;29.60;99.00
4207;DHT22;2117;47.972;7.830;2022-10-16T14:42:17;29.50;99.50
4207;DHT22;2117;47.972;7.830;2022-10-16T14:44:45;29.20;99.90
4207;DHT22;2117;47.972;7.830;2022-10-16T14:47:13;29.00;99.90
4207;DHT22;2117;47.972;7.830;2022-10-16T14:49:41;28.80;99.90
4207;DHT22;2117;47.972;7.830;2022-10-16T14:52:11;28.60;99.90
4207;DHT22;2117;47.972;7.830;2022-10-16T14:54:37;28.20;98.10
4207;DHT22;2117;47.972;7.830;2022-10-16T14:57:03;28.00;99.90
4207;DHT22;2117;47.972;7.830;2022-10-16T14:59:37;28.00;99.90
4207;DHT22;2117;47.972;7.830;2022-10-16T15:04:48;27.60;99.90
4207;DHT22;2117;47.972;7.830;2022-10-16T15:07:14;27.50;99.90
4207;DHT22;2117;47.972;7.830;2022-10-16T15:09:40;27.30;99.90
4207;DHT22;2117;47.972;7.830;2022-10-16T15:12:05;27.20;99.90
4207;DHT22;2117;47.972;7.830;2022-10-16T15:14:31;26.90;99.90
4207;DHT22;2117;47.972;7.830;2022-10-16T15:16:57;26.70;99.90
4207;DHT22;2117;47.972;7.830;2022-10-16T15:19:22;26.20;99.90
4207;DHT22;2117;47.972;7.830;2022-10-16T15:21:48;26.10;99.90
4207;DHT22;2117;47.972;7.830;2022-10-16T15:24:14;26.00;99.90
4207;DHT22;2117;47.972;7.830;2022-10-16T15:26:40;25.90;99.90
4207;DHT22;2117;47.972;7.830;2022-10-16T15:29:06;25.70;99.90
4207;DHT22;2117;47.972;7.830;2022-10-16T15:31:32;25.60;99.90
4207;DHT22;2117;47.972;7.830;2022-10-16T15:33:58;25.40;99.90
4207;DHT22;2117;47.972;7.830;2022-10-16T15:36:30;25.40;99.90
4207;DHT22;2117;47.972;7.830;2022-10-16T15:38:56;25.30;99.90
4207;DHT22;2117;47.972;7.830;2022-10-16T15:41:22;25.10;99.90
4207;DHT22;2117;47.972;7.830;2022-10-16T15:43:49;24.80;99.90
4207;DHT22;2117;47.972;7.830;2022-10-16T15:46:18;24.80;99.90
4207;DHT22;2117;47.972;7.830;2022-10-16T15:48:44;24.70;99.90
4207;DHT22;2117;47.972;7.830;2022-10-16T15:51:09;24.50;99.90
4207;DHT22;2117;47.972;7.830;2022-10-16T15:53:35;24.30;99.90
4207;DHT22;2117;47.972;7.830;2022-10-16T15:56:05;24.20;99.90
4207;DHT22;2117;47.972;7.830;2022-10-16T15:58:31;24.00;99.90
4207;DHT22;2117;47.972;7.830;2022-10-16T16:00:58;23.80;99.90
4207;DHT22;2117;47.972;7.830;2022-10-16T16:03:26;23.50;99.90
4207;DHT22;2117;47.972;7.830;2022-10-16T16:05:52;23.40;99.90
4207;DHT22;2117;47.972;7.830;2022-10-16T16:08:18;23.20;99.90
4207;DHT22;2117;47.972;7.830;2022-10-16T16:10:44;23.00;99.90
4207;DHT22;2117;47.972;7.830;2022-10-16T16:13:09;22.90;99.90
4207;DHT22;2117;47.972;7.830;2022-10-16T16:15:38;22.60;99.90
4207;DHT22;2117;47.972;7.830;2022-10-16T16:18:04;22.50;99.90
4207;DHT22;2117;47.972;7.830;2022-10-16T16:20:31;22.30;99.90
4207;DHT22;2117;47.972;7.830;2022-10-16T16:22:56;22.20;99.90
4207;DHT22;2117;47.972;7.830;2022-10-16T16:25:22;22.10;99.90
4207;DHT22;2117;47.972;7.830;2022-10-16T16:27:48;22.00;99.90
4207;DHT22;2117;47.972;7.830;2022-10-16T16:30:13;21.80;99.90
4207;DHT22;2117;47.972;7.830;2022-10-16T16:32:39;21.60;99.90
4207;DHT22;2117;47.972;7.830;2022-10-16T16:35:05;21.50;99.90
4207;DHT22;2117;47.972;7.830;2022-10-16T16:37:31;21.40;99.90
4207;DHT22;2117;47.972;7.830;2022-10-16T16:39:56;21.20;99.90
4207;DHT22;2117;47.972;7.830;2022-10-16T16:42:25;21.10;99.90
4207;DHT22;2117;47.972;7.830;2022-10-16T16:44:50;20.90;99.90
4207;DHT22;2117;47.972;7.830;2022-10-16T16:47:16;20.90;99.90
4207;DHT22;2117;47.972;7.830;2022-10-16T16:49:41;20.80;99.90
4207;DHT22;2117;47.972;7.830;2022-10-16T16:52:07;20.70;99.90
4207;DHT22;2117;47.972;7.830;2022-10-16T16:54:33;20.50;99.90
4207;DHT22;2117;47.972;7.830;2022-10-16T16:56:58;20.50;99.90
4207;DHT22;2117;47.972;7.830;2022-10-16T16:59:24;20.40;99.90
4207;DHT22;2117;47.972;7.830;2022-10-16T17:01:50;20.30;99.90
4207;DHT22;2117;47.972;7.830;2022-10-16T17:04:16;20.20;99.90
4207;DHT22;2117;47.972;7.830;2022-10-16T17:06:42;20.10;99.90
4207;DHT22;2117;47.972;7.830;2022-10-16T17:09:08;20.00;99.90
4207;DHT22;2117;47.972;7.830;2022-10-16T17:11:34;19.90;99.90
4207;DHT22;2117;47.972;7.830;2022-10-16T17:14:01;19.70;99.90
4207;DHT22;2117;47.972;7.830;2022-10-16T17:16:30;19.70;99.90
4207;DHT22;2117;47.972;7.830;2022-10-16T17:19:08;19.70;99.90
4207;DHT22;2117;47.972;7.830;2022-10-16T17:21:35;19.60;99.90
4207;DHT22;2117;47.972;7.830;2022-10-16T17:24:01;19.40;99.90
4207;DHT22;2117;47.972;7.830;2022-10-16T17:26:27;19.40;99.90
4207;DHT22;2117;47.972;7.830;2022-10-16T17:28:55;19.30;99.90
4207;DHT22;2117;47.972;7.830;2022-10-16T17:31:24;19.20;99.90
4207;DHT22;2117;47.972;7.830;2022-10-16T17:33:50;19.10;99.90
4207;DHT22;2117;47.972;7.830;2022-10-16T17:36:17;19.00;99.90
4207;DHT22;2117;47.972;7.830;2022-10-16T17:38:43;19.00;99.90
4207;DHT22;2117;47.972;7.830;2022-10-16T17:41:12;19.00;99.90
4207;DHT22;2117;47.972;7.830;2022-10-16T17:43:39;18.90;99.90
4207;DHT22;2117;47.972;7.830;2022-10-16T17:46:06;18.70;99.90
4207;DHT22;2117;47.972;7.830;2022-10-16T17:48:35;18.70;99.90
4207;DHT22;2117;47.972;7.830;2022-10-16T17:51:04;18.70;99.90
4207;DHT22;2117;47.972;7.830;2022-10-16T17:53:29;18.60;99.90
4207;DHT22;2117;47.972;7.830;2022-10-16T17:55:55;18.50;99.90
4207;DHT22;2117;47.972;7.830;2022-10-16T17:58:23;18.50;99.90
4207;DHT22;2117;47.972;7.830;2022-10-16T18:00:49;18.40;99.90
4207;DHT22;2117;47.972;7.830;2022-10-16T18:03:15;18.40;99.90
4207;DHT22;2117;47.972;7.830;2022-10-16T18:05:40;18.30;99.90
4207;DHT22;2117;47.972;7.830;2022-10-16T18:08:06;18.30;99.90
4207;DHT22;2117;47.972;7.830;2022-10-16T18:10:31;18.20;99.90
4207;DHT22;2117;47.972;7.830;2022-10-16T18:12:57;18.10;99.90
4207;DHT22;2117;47.972;7.830;2022-10-16T18:15:22;18.10;99.90
4207;DHT22;2117;47.972;7.830;2022-10-16T18:17:48;18.00;99.90
4207;DHT22;2117;47.972;7.830;2022-10-16T18:20:13;18.00;99.90
4207;DHT22;2117;47.972;7.830;2022-10-16T18:22:39;18.00;99.90
4207;DHT22;2117;47.972;7.830;2022-10-16T18:25:06;17.90;99.90
4207;DHT22;2117;47.972;7.830;2022-10-16T18:27:33;17.80;99.90
4207;DHT22;2117;47.972;7.830;2022-10-16T18:29:59;17.80;99.90
4207;DHT22;2117;47.972;7.830;2022-10-16T18:32:25;17.80;99.90
4207;DHT22;2117;47.972;7.830;2022-10-16T18:34:52;17.60;99.90
4207;DHT22;2117;47.972;7.830;2022-10-16T18:37:19;17.60;99.90
4207;DHT22;2117;47.972;7.830;2022-10-16T18:39:46;17.60;99.90
4207;DHT22;2117;47.972;7.830;2022-10-16T18:42:13;17.60;99.90
4207;DHT22;2117;47.972;7.830;2022-10-16T18:44:38;17.50;99.90
4207;DHT22;2117;47.972;7.830;2022-10-16T18:47:04;17.50;99.90
4207;DHT22;2117;47.972;7.830;2022-10-16T18:49:30;17.40;99.90
4207;DHT22;2117;47.972;7.830;2022-10-16T18:51:55;17.30;99.90
4207;DHT22;2117;47.972;7.830;2022-10-16T18:54:22;17.30;99.90
4207;DHT22;2117;47.972;7.830;2022-10-16T18:56:50;17.30;99.90
4207;DHT22;2117;47.972;7.830;2022-10-16T18:59:16;17.20;99.90
4207;DHT22;2117;47.972;7.830;2022-10-16T19:01:42;17.20;99.90
4207;DHT22;2117;47.972;7.830;2022-10-16T19:04:14;17.10;99.90
4207;DHT22;2117;47.972;7.830;2022-10-16T19:06:45;17.10;99.90
4207;DHT22;2117;47.972;7.830;2022-10-16T19:09:12;17.10;99.90
4207;DHT22;2117;47.972;7.830;2022-10-16T19:11:38;17.00;99.90
4207;DHT22;2117;47.972;7.830;2022-10-16T19:14:04;16.90;99.90
4207;DHT22;2117;47.972;7.830;2022-10-16T19:16:32;16.90;99.90
4207;DHT22;2117;47.972;7.830;2022-10-16T19:19:02;16.90;99.90
4207;DHT22;2117;47.972;7.830;2022-10-16T19:21:28;16.90;99.90